Post, Texas
Current Conditions -  °F | °C
As of 1:53 AM on Tuesday 21 Oct 2014 (Local Time) from KLBB Reporting Station
Few Clouds Few Clouds  
Wind Chill: 57°   Ceiling: Unl
Heat Index: 57°   Visibility: 10mi
Dew Point: 51°   Wind: 6mph
Humidity: 81%   Direction: 190°S
Pressure: 30.1"   Gusts: NA
Location:  33.19°N, 101.38°W
Report Text: KLBB 210653Z 19005KT 10SM FEW140 FEW280 14/11 A3010 RMK AO2 SLP157 T01390106
Loading
Personal Weather Stations






























Interactive Weather Map
Tropical Storm Tracking
New forecast layout! Learn more

10-Day Weather Forecast

Advertisements
Track Severe Weather on mobile